Richmond, CA

11:30 AM PDT on August 29, 2014 (GMT -0700)
Pinole Valley - Inland | Change Station
CLOSE
Current Station
Personal Weather Station
Location: Pinole, CA
Elevation: 262 ft
Nearby Weather Stations

Elev 262 ft 37.98 °N, 122.26 °W | Updated 13 seconds ago

Mostly Cloudy
Mostly Cloudy
70.0 °F
Feels Like 70.0 °F
N
1.0
Wind Variable Wind from SE
Gusts 9.0 mph

Today
High -- | Low -- °F
--% Chance of Precip.
Yesterday
High -- | Low -- °F
Precip. -- in
6:36 AM 7:42 PM
Waxing Crescent, 15% visible
Pressure 29.89 in
Visibility 10.0 miles
Clouds Mostly Cloudy 15000 ft
Dew Point 59 °F
Humidity 68%
Rainfall 0.00 in
Snow Depth Not available.
UV 4 out of 12
Pollen 7.40 out of 12
Ozone Good
PM2.5 Good
Flu Activity Not available.
METAR KCCR 291753Z 18005KT 10SM BKN150 21/14 A2993 RMK AO2 SLP121 T02110139 10211 20156 50002

More Conditions Fewer Conditions

Pressure 29.89 in
Visibility 10.0 miles
Clouds Mostly Cloudy 15000 ft
Dew Point 59 °F
Humidity 68%
Rainfall 0.00 in
Snow Depth Not available.
UV 4 out of 12
Pollen 7.40 out of 12
Ozone Good
PM2.5 Good
Flu Activity Not available.
METAR KCCR 291753Z 18005KT 10SM BKN150 21/14 A2993 RMK AO2 SLP121 T02110139 10211 20156 50002

More Conditions Fewer Conditions

10-Day Weather Forecast

Almanac

Astronomy

Aug. 29, 2014 Rise Set
Actual Time 6:36 AM PDT 7:42 PM PDT
Civil Twilight 6:09 AM PDT 8:09 PM PDT
Nautical Twilight 5:37 AM PDT 8:41 PM PDT
Astronomical Twilight 5:03 AM PDT 9:15 PM PDT
Moon 10:26 AM PDT 9:48 PM PDT
Length of Visible Light 14h 00m
Length of Day
13h 06m
Tomorrow will be 2m 19s shorter.
Waxing Crescent, 15% of the Moon is Illuminated
Today
Waxing Crescent
Sep 2
First Quarter
Sep 8
Full
Sep 15
Last Quarter
Sep 24
New

Today's Extremes

State Highs State Lows

Community

WunderPhotos

Upload Photos

1,748,313 photos uploaded!

Nearby

Air Quality

  Air Quality AQ Index Pollutant
Yesterday Good
OZONE
Yesterday Good
PM2.5
Current Good
PM2.5
Current Good
OZONE
Friday Good
OZONE
Saturday Good
OZONE
Sunday Good
OZONE
Monday Good
OZONE
Tuesday Good
OZONE
Wednesday Good
OZONE

Snow Depth

Station Depth Elevation
Forestdale Creek 0 in 8029 ft
Rubicon #2 0 in 7500 ft
Fallen Leaf 0 in 6300 ft
CSS Lab 0 in 6900 ft
Summit Meadow 0 in 9122 ft

Earthquake Activity

City Distance Mag. Time & Date
Napa, California 20 miles 2.6 11:57 AM PDT
2014-08-27
The Geysers, California 66 miles 2.6 7:42 AM PDT
2014-08-27
Minimum magnitude displayed is 2.5.

Coastal Water Temperatures

Place Temperature
San Francisco, CA 66.0 °F
Richmond, CA 66.9 °F
Port Chicago, CA 69.1 °F

Nearby Weather Stations